Time;durP1;ratioP1;P1;durP2;ratioP2;P2;SDS_P1;SDS_P2;PMS_P1;PMS_P2;Temp;Humidity;BMP_temperature;BMP_pressure;BME280_temperature;BME280_humidity;BME280_pressure;Samples;Min_cycle;Max_cycle;Signal;HPM_P1;HPM_P2
2021/06/12 00:10:06;;;;;;;9.18;8.38;;;18.60;99.90;;;19.10;100.00;100341.22;5058000;28;20523;-60
2021/06/12 00:17:28;;;;;;;14.35;13.05;;;18.50;99.90;;;19.10;100.00;100339.31;5039197;28;20320;-59
2021/06/12 00:20:43;;;;;;;15.48;13.98;;;18.50;99.90;;;19.17;100.00;100345.56;5032924;28;20209;-60
2021/06/12 00:27:14;;;;;;;18.55;16.80;;;18.40;99.90;;;19.08;100.00;100338.69;5049232;28;20579;-60
2021/06/12 00:30:26;;;;;;;18.52;16.65;;;18.40;99.90;;;19.06;100.00;100329.09;5047862;28;20700;-59
2021/06/12 00:33:50;;;;;;;15.60;14.15;;;18.30;99.90;;;19.09;100.00;100328.69;5048064;28;20282;-59
2021/06/12 00:37:01;;;;;;;13.77;12.40;;;18.30;99.90;;;19.05;100.00;100325.56;5048914;28;20526;-60
2021/06/12 00:40:13;;;;;;;17.33;14.75;;;18.30;99.90;;;18.98;100.00;100332.88;5034726;28;20366;-59
2021/06/12 00:43:24;;;;;;;13.98;12.68;;;18.20;99.90;;;19.03;100.00;100333.09;5048996;28;20336;-60
2021/06/12 00:46:36;;;;;;;14.07;12.77;;;18.20;99.90;;;18.87;100.00;100333.53;5028843;28;20442;-58
2021/06/12 00:50:02;;;;;;;13.80;12.50;;;18.10;99.90;;;18.77;100.00;100336.69;5019540;28;20420;-59
2021/06/12 00:53:18;;;;;;;11.60;10.52;;;18.10;99.90;;;18.73;100.00;100334.59;5033719;28;20483;-59
2021/06/12 00:56:30;;;;;;;12.20;11.20;;;18.10;99.90;;;18.69;100.00;100333.34;5048800;28;20926;-60
2021/06/12 00:59:41;;;;;;;11.93;10.93;;;18.00;99.90;;;18.66;100.00;100331.91;5049366;28;20294;-59
2021/06/12 01:02:53;;;;;;;12.23;11.13;;;18.00;99.90;;;18.75;100.00;100332.50;5048919;28;20220;-59
2021/06/12 01:06:06;;;;;;;13.18;11.93;;;17.90;99.90;;;18.73;100.00;100330.00;5049001;28;20922;-60
2021/06/12 01:09:17;;;;;;;12.23;11.20;;;17.90;99.90;;;18.67;100.00;100327.31;5050238;28;20228;-60
2021/06/12 01:12:38;;;;;;;13.80;12.63;;;17.90;99.90;;;18.53;100.00;100330.00;5049192;28;20217;-60
2021/06/12 01:15:52;;;;;;;12.70;11.60;;;17.90;99.90;;;18.61;100.00;100320.84;5048953;28;20304;-59
2021/06/12 01:19:05;;;;;;;14.50;13.18;;;17.80;99.90;;;18.52;100.00;100324.78;5059891;28;20243;-60
2021/06/12 01:22:22;;;;;;;14.07;12.90;;;17.80;99.90;;;18.56;100.00;100326.00;5088295;28;20216;-60
2021/06/12 01:25:40;;;;;;;14.48;13.02;;;17.80;99.90;;;18.54;100.00;100323.53;5052958;28;20217;-60
2021/06/12 01:29:00;;;;;;;13.35;12.07;;;17.70;99.90;;;18.59;100.00;100321.03;5068352;28;20749;-59
2021/06/12 01:32:19;;;;;;;13.88;12.68;;;17.70;99.90;;;18.65;100.00;100319.38;5069142;28;20212;-60
2021/06/12 01:35:34;;;;;;;11.23;10.23;;;17.70;99.90;;;18.52;100.00;100327.50;5068455;28;20248;-60
2021/06/12 01:38:59;;;;;;;14.00;12.60;;;17.70;99.90;;;18.50;100.00;100316.84;5067505;28;20231;-60
2021/06/12 01:42:12;;;;;;;13.00;11.90;;;17.70;99.90;;;18.59;100.00;100312.91;5066929;28;20544;-57
2021/06/12 01:45:24;;;;;;;13.40;11.15;;;17.70;99.90;;;18.57;100.00;100308.72;5067791;28;20554;-60
2021/06/12 01:48:59;;;;;;;12.52;11.43;;;17.70;99.90;;;18.62;100.00;100303.53;5055545;28;20603;-60
2021/06/12 01:52:12;;;;;;;12.68;11.48;;;17.70;99.90;;;18.64;100.00;100307.72;5004635;28;20624;-60
2021/06/12 01:55:24;;;;;;;13.45;12.38;;;17.70;99.90;;;18.26;100.00;100304.78;5064483;28;20323;-59
2021/06/12 01:59:14;;;;;;;12.55;11.30;;;17.70;99.90;;;18.32;100.00;100297.66;5067493;28;20228;-60
2021/06/12 02:02:27;;;;;;;12.65;11.60;;;17.60;99.90;;;18.19;100.00;100298.50;5000697;28;20779;-57
2021/06/12 02:09:19;;;;;;;11.82;10.93;;;17.50;99.90;;;18.24;100.00;100304.13;5001707;28;20222;-58
2021/06/12 02:16:10;;;;;;;12.32;11.32;;;17.40;99.90;;;18.16;100.00;100307.06;5023725;28;20528;-57
2021/06/12 02:19:22;;;;;;;11.90;10.73;;;17.40;99.90;;;18.33;100.00;100304.75;5047338;28;20224;-59
2021/06/12 02:22:35;;;;;;;12.52;11.32;;;17.30;99.90;;;18.35;100.00;100307.25;5009111;28;20591;-59
2021/06/12 02:25:47;;;;;;;12.32;11.13;;;17.30;99.90;;;18.40;100.00;100302.06;5027125;28;20572;-59
2021/06/12 02:29:12;;;;;;;13.00;11.90;;;17.40;99.90;;;18.51;100.00;100304.16;5037905;28;20569;-58
2021/06/12 02:32:27;;;;;;;14.48;12.25;;;17.40;99.90;;;18.50;100.00;100302.47;5027472;28;20618;-60
2021/06/12 02:35:39;;;;;;;11.85;10.85;;;17.50;99.90;;;18.64;100.00;100293.34;5044997;28;20930;-59
2021/06/12 02:42:27;;;;;;;12.27;11.13;;;17.70;99.90;;;18.87;100.00;100298.28;5047240;28;20242;-59
2021/06/12 02:45:39;;;;;;;12.45;11.40;;;17.70;99.90;;;18.68;100.00;100297.25;5047598;28;20318;-58
2021/06/12 02:52:43;;;;;;;12.50;11.30;;;17.90;99.90;;;18.71;100.00;100293.31;5042952;28;20233;-60
2021/06/12 02:55:59;;;;;;;11.15;10.23;;;17.90;99.90;;;18.72;100.00;100287.69;5050456;28;20767;-58
2021/06/12 02:59:16;;;;;;;12.38;11.18;;;17.90;99.90;;;18.75;100.00;100294.56;5050679;28;20669;-58
2021/06/12 03:02:28;;;;;;;11.20;10.30;;;17.90;99.90;;;18.66;100.00;100302.09;5050432;28;20532;-60
2021/06/12 03:05:44;;;;;;;11.68;10.68;;;18.00;99.90;;;18.75;100.00;100308.94;5033946;28;20984;-60
2021/06/12 03:09:01;;;;;;;12.75;11.60;;;18.00;99.90;;;18.61;100.00;100297.28;5049494;28;20403;-60
2021/06/12 03:12:15;;;;;;;12.23;10.93;;;18.00;99.90;;;18.63;100.00;100299.78;5049975;28;20637;-60
2021/06/12 03:15:27;;;;;;;11.45;10.45;;;18.10;99.90;;;18.61;100.00;100300.00;5048132;28;20256;-60
2021/06/12 03:18:39;;;;;;;12.27;10.90;;;18.10;99.90;;;18.53;100.00;100305.59;5049828;28;20578;-59
2021/06/12 03:25:20;;;;;;;13.30;12.20;;;18.00;99.90;;;18.60;100.00;100303.75;5028227;28;20221;-60
2021/06/12 03:28:47;;;;;;;13.02;11.75;;;18.00;99.90;;;18.64;100.00;100305.00;5000363;28;20225;-59
2021/06/12 03:31:59;;;;;;;12.35;11.25;;;18.00;99.90;;;18.75;100.00;100305.41;5048935;28;20512;-60
2021/06/12 03:35:16;;;;;;;13.48;12.18;;;18.00;99.90;;;18.78;100.00;100296.84;5050006;28;20221;-57
2021/06/12 03:38:28;;;;;;;14.50;12.98;;;18.00;99.90;;;18.76;100.00;100304.34;5047134;28;20268;-59
2021/06/12 03:45:04;;;;;;;12.38;11.27;;;18.00;99.90;;;19.15;100.00;100301.56;5030924;28;20434;-59
2021/06/12 03:48:29;;;;;;;13.55;12.38;;;18.10;99.90;;;19.46;100.00;100306.22;5049024;28;20225;-59
2021/06/12 03:51:46;;;;;;;13.18;11.95;;;18.20;99.90;;;19.80;100.00;100306.91;5048135;28;20292;-61
2021/06/12 03:54:59;;;;;;;12.32;11.15;;;18.20;99.90;;;20.04;100.00;100298.00;5049261;28;20590;-60
2021/06/12 03:58:23;;;;;;;12.43;11.18;;;18.30;99.90;;;20.06;100.00;100301.31;5048709;28;20516;-61
2021/06/12 04:05:06;;;;;;;12.32;11.13;;;18.60;99.90;;;20.30;100.00;100297.81;5041282;28;20205;-61
2021/06/12 04:08:17;;;;;;;12.65;11.55;;;18.70;99.90;;;20.40;100.00;100291.88;5048539;28;20472;-60
2021/06/12 04:11:28;;;;;;;11.77;10.65;;;18.80;99.90;;;20.55;100.00;100284.25;5048430;28;20707;-61
2021/06/12 04:14:40;;;;;;;12.63;11.35;;;18.90;99.90;;;20.65;100.00;100286.44;5049126;28;20496;-61
2021/06/12 04:17:59;;;;;;;11.82;10.60;;;19.00;99.90;;;20.71;100.00;100297.28;5048158;28;20236;-61
2021/06/12 04:21:10;;;;;;;12.30;11.20;;;19.10;99.90;;;20.78;100.00;100299.91;5049685;28;20616;-61
2021/06/12 04:24:22;;;;;;;12.02;10.93;;;19.20;99.90;;;20.73;100.00;100297.06;5048883;28;20233;-61
2021/06/12 04:27:33;;;;;;;12.63;11.43;;;19.30;99.90;;;20.73;100.00;100295.16;5048706;28;20708;-60
2021/06/12 04:30:45;;;;;;;12.10;11.00;;;19.40;99.90;;;20.84;100.00;100298.19;5048528;28;20275;-61
2021/06/12 04:33:58;;;;;;;11.77;10.77;;;19.50;99.90;;;20.94;100.00;100303.94;5048871;28;20716;-62
2021/06/12 04:37:36;;;;;;;12.02;10.85;;;19.50;99.90;;;20.96;100.00;100294.50;5048916;28;20487;-60
2021/06/12 04:40:49;;;;;;;11.15;10.15;;;19.60;99.90;;;20.91;100.00;100299.78;4950499;28;20570;-61
2021/06/12 04:44:01;;;;;;;12.50;11.18;;;19.60;99.90;;;21.00;100.00;100301.16;5049224;28;20779;-61
2021/06/12 04:47:12;;;;;;;13.13;10.93;;;19.70;99.90;;;21.26;100.00;100299.25;5028369;28;20218;-62
2021/06/12 04:50:26;;;;;;;11.48;10.38;;;19.80;99.90;;;21.50;100.00;100296.41;5040298;28;20361;-62
2021/06/12 04:53:49;;;;;;;11.20;10.07;;;19.90;99.90;;;21.55;100.00;100287.53;5070190;28;20224;-61
2021/06/12 05:00:35;;;;;;;10.57;9.68;;;20.20;99.90;;;21.79;100.00;100286.56;5039280;28;20213;-62
2021/06/12 05:03:58;;;;;;;10.73;9.82;;;20.40;99.90;;;21.91;100.00;100296.69;5045731;28;20380;-59
2021/06/12 05:07:11;;;;;;;12.50;9.95;;;20.60;99.90;;;22.21;100.00;100286.63;5056561;28;20721;-59
2021/06/12 05:10:22;;;;;;;11.15;10.05;;;20.80;99.90;;;22.08;100.00;100282.19;5072245;27;20947;-61
2021/06/12 05:13:57;;;;;;;10.15;9.27;;;21.00;99.90;;;22.22;100.00;100285.56;5060084;27;20549;-62
2021/06/12 05:17:11;;;;;;;10.52;9.50;;;21.20;99.90;;;22.29;100.00;100280.81;4999232;28;20230;-60
2021/06/12 05:20:25;;;;;;;9.90;8.90;;;21.30;99.90;;;22.19;100.00;100280.56;5000543;28;20218;-61
2021/06/12 05:23:38;;;;;;;11.40;9.13;;;21.40;99.90;;;22.30;100.00;100284.38;5043079;27;20543;-61
2021/06/12 05:26:49;;;;;;;10.65;9.27;;;21.40;99.90;;;22.35;100.00;100279.88;5085784;27;20783;-61
2021/06/12 05:30:00;;;;;;;9.55;8.65;;;21.50;99.90;;;22.37;100.00;100269.59;5075011;27;20577;-60
2021/06/12 05:33:12;;;;;;;9.00;8.20;;;21.50;99.90;;;22.76;100.00;100275.41;5067891;27;20215;-62
2021/06/12 05:36:34;;;;;;;9.00;7.88;;;21.60;99.90;;;22.77;100.00;100274.34;5040367;27;20223;-61
2021/06/12 05:39:47;;;;;;;9.60;8.40;;;21.70;99.90;;;22.95;100.00;100266.03;5063598;27;20322;-61
2021/06/12 05:42:58;;;;;;;9.38;8.23;;;21.90;99.90;;;23.06;100.00;100272.53;5064491;27;20302;-60
2021/06/12 05:53:36;;;;;;;10.75;8.90;;;22.30;99.90;;;23.37;100.00;100257.63;5006034;27;20272;-61
2021/06/12 06:00:26;;;;;;;9.95;8.98;;;22.60;99.90;;;24.20;100.00;100249.63;5061855;27;20224;-62
2021/06/12 06:03:38;;;;;;;9.40;8.50;;;22.80;99.90;;;23.97;100.00;100244.31;5068819;27;20266;-60
2021/06/12 06:06:58;;;;;;;9.02;8.13;;;23.10;99.90;;;24.05;100.00;100243.06;5065262;27;20520;-60
2021/06/12 06:10:09;;;;;;;9.52;8.63;;;23.30;99.90;;;23.98;100.00;100235.03;5075703;27;20228;-60
2021/06/12 06:13:23;;;;;;;9.15;7.57;;;23.50;99.90;;;24.13;100.00;100242.66;5054186;27;20339;-60
2021/06/12 06:16:34;;;;;;;8.63;7.70;;;23.60;99.90;;;23.94;100.00;100244.81;5069022;27;20522;-60
2021/06/12 06:19:45;;;;;;;9.30;7.60;;;23.70;99.90;;;23.82;100.00;100242.13;5069657;27;20227;-60
2021/06/12 06:22:56;;;;;;;8.45;7.75;;;23.80;99.10;;;24.36;100.00;100247.19;5070747;27;20710;-60
2021/06/12 06:26:07;;;;;;;8.02;7.25;;;23.80;99.40;;;24.27;100.00;100250.31;5066795;27;20617;-60
2021/06/12 06:29:20;;;;;;;10.68;7.20;;;24.00;99.10;;;24.56;100.00;100252.94;5077601;27;20538;-59
2021/06/12 06:32:32;;;;;;;10.30;6.93;;;24.10;98.90;;;24.70;100.00;100254.25;5076629;27;20269;-61
2021/06/12 06:35:43;;;;;;;9.77;7.70;;;24.30;98.20;;;24.79;100.00;100246.44;5074937;27;20329;-60
2021/06/12 06:38:54;;;;;;;8.98;7.63;;;24.50;97.90;;;25.16;100.00;100241.22;5080235;27;20426;-61
2021/06/12 06:42:05;;;;;;;8.77;7.95;;;24.70;97.70;;;25.20;100.00;100247.84;5078734;27;20330;-61
2021/06/12 06:45:19;;;;;;;11.35;7.20;;;24.90;97.30;;;25.18;100.00;100247.28;5078579;27;20446;-61
2021/06/12 06:48:31;;;;;;;8.48;7.68;;;25.20;96.20;;;24.85;100.00;100245.44;5080187;27;20968;-62
2021/06/12 06:51:42;;;;;;;8.30;7.50;;;25.30;94.80;;;24.37;100.00;100249.63;5088096;27;20519;-61
2021/06/12 06:54:53;;;;;;;9.32;7.80;;;25.40;93.70;;;24.45;100.00;100245.69;5080350;27;20247;-60
2021/06/12 06:58:05;;;;;;;7.90;7.32;;;25.30;93.30;;;24.35;100.00;100246.34;5078451;27;20335;-61
2021/06/12 07:01:17;;;;;;;9.60;8.10;;;25.20;93.40;;;24.05;100.00;100241.16;5082417;27;20475;-62
2021/06/12 07:04:28;;;;;;;13.15;8.70;;;25.00;93.00;;;23.93;100.00;100249.44;5069159;27;20457;-61
2021/06/12 07:07:40;;;;;;;9.13;8.23;;;24.80;93.70;;;23.92;100.00;100241.47;5066029;27;20235;-60
2021/06/12 07:10:51;;;;;;;7.80;7.20;;;24.70;94.40;;;24.16;100.00;100242.16;5066858;27;20264;-60
2021/06/12 07:14:02;;;;;;;8.50;7.43;;;24.60;95.00;;;24.18;100.00;100237.28;5065139;27;20534;-60
2021/06/12 07:17:14;;;;;;;9.07;6.82;;;24.50;95.20;;;24.32;100.00;100228.53;5075772;27;20215;-61
2021/06/12 07:20:50;;;;;;;8.95;8.05;;;24.60;95.30;;;24.85;100.00;100224.34;5069492;27;20212;-60
2021/06/12 07:24:01;;;;;;;9.85;8.85;;;24.70;95.10;;;25.04;100.00;100217.53;5057295;27;20442;-61
2021/06/12 07:27:13;;;;;;;10.25;8.50;;;24.90;94.70;;;25.08;100.00;100217.88;5067096;27;20219;-60
2021/06/12 07:30:25;;;;;;;9.07;8.27;;;25.10;94.30;;;25.03;100.00;100215.06;5066644;27;20215;-61
2021/06/12 07:33:38;;;;;;;9.00;7.85;;;25.30;93.70;;;24.79;100.00;100227.28;5069408;27;20546;-60
2021/06/12 07:36:58;;;;;;;9.77;6.93;;;25.40;93.20;;;25.12;100.00;100229.94;5065317;27;20536;-60
2021/06/12 07:40:10;;;;;;;7.72;7.00;;;25.40;92.60;;;24.95;100.00;100227.28;5076192;27;20468;-60
2021/06/12 07:43:22;;;;;;;7.55;6.85;;;25.60;91.40;;;24.76;100.00;100227.78;5081936;27;20223;-61
2021/06/12 07:46:50;;;;;;;9.07;7.28;;;25.70;90.20;;;24.64;100.00;100225.16;5062640;27;20228;-60
2021/06/12 07:50:03;;;;;;;7.85;7.00;;;25.80;90.20;;;24.83;100.00;100220.25;5079195;27;20265;-61
2021/06/12 07:53:15;;;;;;;7.50;6.90;;;25.80;90.00;;;24.89;100.00;100232.91;5081612;27;20239;-61
2021/06/12 07:56:40;;;;;;;8.82;7.90;;;25.80;90.00;;;24.73;100.00;100240.06;5066524;27;20251;-61
2021/06/12 07:59:52;;;;;;;8.10;7.40;;;25.80;89.80;;;24.66;100.00;100229.31;5081045;27;20709;-60
2021/06/12 08:03:04;;;;;;;13.30;7.65;;;25.80;89.20;;;24.80;100.00;100223.47;5069575;27;20232;-61
2021/06/12 08:06:17;;;;;;;8.05;7.25;;;25.70;89.80;;;24.65;100.00;100207.66;5078692;27;20224;-60
2021/06/12 08:09:28;;;;;;;8.50;7.28;;;25.70;89.20;;;24.63;100.00;100209.81;5063857;28;20657;-61
2021/06/12 08:12:52;;;;;;;7.65;6.65;;;25.60;89.20;;;25.26;100.00;100208.47;5082633;27;20523;-61
2021/06/12 08:16:03;;;;;;;8.13;7.43;;;25.60;89.90;;;24.68;100.00;100204.44;5076450;27;20228;-61
2021/06/12 08:19:14;;;;;;;7.63;6.97;;;25.60;88.70;;;24.95;100.00;100207.28;5089684;27;20395;-60
2021/06/12 08:22:27;;;;;;;7.68;6.80;;;25.70;88.50;;;25.31;100.00;100220.34;5076376;27;20239;-61
2021/06/12 08:25:39;;;;;;;7.97;6.60;;;25.80;89.00;;;25.69;100.00;100218.56;5082824;27;20827;-60
2021/06/12 08:28:50;;;;;;;8.23;7.32;;;26.10;88.60;;;25.51;100.00;100196.97;5071418;27;20220;-61
2021/06/12 08:32:02;;;;;;;9.27;8.35;;;26.40;85.70;;;25.30;100.00;100212.38;5060644;28;20530;-61
2021/06/12 08:35:13;;;;;;;8.75;7.70;;;26.50;84.00;;;25.77;100.00;100198.91;5081498;27;20215;-60
2021/06/12 08:38:26;;;;;;;8.45;7.38;;;26.60;84.20;;;25.64;100.00;100194.69;5063447;27;20537;-59
2021/06/12 08:41:43;;;;;;;8.25;7.45;;;26.70;83.80;;;25.89;100.00;100201.47;5065794;28;20338;-60
2021/06/12 08:45:41;;;;;;;8.75;7.68;;;26.80;83.10;;;25.78;100.00;100203.31;5075787;27;20522;-61
2021/06/12 08:48:53;;;;;;;8.18;7.38;;;26.90;82.40;;;25.27;100.00;100208.22;4932683;28;20616;-61
2021/06/12 08:52:04;;;;;;;8.90;8.10;;;26.90;80.60;;;25.37;100.00;100189.16;4976987;28;20768;-59
2021/06/12 08:59:08;;;;;;;8.32;7.15;;;26.60;80.80;;;25.84;100.00;100196.75;4957995;28;20602;-59
2021/06/12 09:02:19;;;;;;;7.85;6.75;;;26.40;80.90;;;25.93;100.00;100191.66;4978698;28;20231;-61
2021/06/12 09:05:48;;;;;;;7.75;7.07;;;26.50;81.70;;;26.04;100.00;100204.34;5025447;27;20255;-61
2021/06/12 09:13:10;;;;;;;7.75;6.45;;;26.70;79.30;;;26.34;100.00;100185.41;5066257;27;20346;-60
2021/06/12 09:16:30;;;;;;;7.00;6.30;;;26.70;79.20;;;26.30;100.00;100183.47;5007973;28;20919;-60
2021/06/12 09:19:47;;;;;;;6.22;5.72;;;27.00;80.00;;;26.02;100.00;100179.13;5084289;27;20671;-59
2021/06/12 09:23:00;;;;;;;7.93;5.75;;;27.10;77.80;;;25.75;100.00;100177.25;5068655;27;20244;-61
2021/06/12 09:26:43;;;;;;;7.30;6.60;;;27.20;76.20;;;25.81;100.00;100177.31;5068794;27;20514;-61
2021/06/12 09:30:01;;;;;;;6.72;5.43;;;27.20;75.10;;;26.04;100.00;100174.19;5067484;27;20493;-60
2021/06/12 09:36:53;;;;;;;5.35;4.88;;;27.20;74.70;;;25.90;100.00;100165.59;5080148;27;20228;-61
2021/06/12 09:40:26;;;;;;;7.20;5.43;;;27.40;71.00;;;25.96;100.00;100174.69;5084996;27;21056;-58
2021/06/12 09:43:52;;;;;;;6.72;5.25;;;27.50;69.00;;;26.16;100.00;100174.00;5049660;28;20232;-61
2021/06/12 09:47:13;;;;;;;7.13;5.10;;;27.40;69.00;;;25.76;100.00;100178.06;5058135;28;20467;-59
2021/06/12 09:50:29;;;;;;;7.90;4.18;;;27.30;68.30;;;25.46;100.00;100170.38;5054964;28;20267;-60
2021/06/12 09:54:06;;;;;;;5.97;4.70;;;27.10;68.80;;;25.54;100.00;100169.06;5061383;28;20228;-60
2021/06/12 09:57:33;;;;;;;5.35;4.85;;;27.00;68.80;;;25.76;100.00;100159.72;5058010;28;20334;-60
2021/06/12 10:00:51;;;;;;;8.40;5.20;;;27.00;69.20;;;26.47;100.00;100157.50;5060149;28;20230;-60
2021/06/12 10:04:08;;;;;;;5.40;5.00;;;27.10;69.70;;;26.59;100.00;100145.47;5056745;28;20765;-61
2021/06/12 10:07:21;;;;;;;4.88;4.28;;;27.40;68.00;;;27.25;100.00;100146.59;5063780;28;21063;-60
2021/06/12 10:10:33;;;;;;;5.63;5.13;;;27.80;67.80;;;26.83;100.00;100149.44;5058297;28;20245;-61
2021/06/12 10:17:41;;;;;;;6.38;5.88;;;28.10;63.10;;;26.75;100.00;100137.06;4998484;28;20501;-59
2021/06/12 10:32:19;;;;;;;6.57;5.97;;;27.70;62.50;;;25.86;100.00;100141.69;4970391;28;20230;-61
2021/06/12 10:35:34;;;;;;;5.40;5.00;;;27.30;62.90;;;25.88;100.00;100136.78;4981860;27;20329;-61
2021/06/12 10:38:57;;;;;;;5.32;4.93;;;27.00;64.10;;;25.69;100.00;100126.22;5066817;27;20506;-61
2021/06/12 10:42:26;;;;;;;5.05;4.63;;;26.80;64.60;;;25.69;100.00;100128.97;5062745;27;20540;-61
2021/06/12 10:45:52;;;;;;;5.50;5.00;;;26.70;65.40;;;26.15;100.00;100118.34;5061330;27;20912;-60
2021/06/12 10:49:39;;;;;;;4.95;4.55;;;26.50;65.90;;;26.25;100.00;100125.78;5065626;27;20264;-59
2021/06/12 10:53:15;;;;;;;5.28;4.82;;;26.60;65.50;;;27.04;100.00;100109.19;5043563;27;20245;-60
2021/06/12 10:56:40;;;;;;;4.97;4.47;;;27.00;65.00;;;26.92;100.00;100103.94;5063331;27;20607;-60
2021/06/12 11:00:12;;;;;;;7.82;5.47;;;27.40;63.30;;;26.62;100.00;100096.41;5078038;27;20397;-61
2021/06/12 11:03:50;;;;;;;6.55;5.88;;;27.60;61.80;;;26.13;100.00;100087.59;5070752;27;20232;-61
2021/06/12 11:07:10;;;;;;;6.50;5.70;;;27.70;60.20;;;25.75;100.00;100096.94;5085812;27;20729;-60
2021/06/12 11:10:57;;;;;;;5.93;5.32;;;27.40;60.50;;;25.07;100.00;100101.22;5086899;27;20228;-59
2021/06/12 11:14:48;;;;;;;6.95;6.18;;;27.10;66.10;;;24.17;100.00;100124.38;5043406;27;20232;-61
2021/06/12 11:18:06;;;;;;;6.78;6.18;;;26.20;73.70;;;23.83;100.00;100152.81;4964023;28;20694;-62
2021/06/12 11:21:31;;;;;;;7.68;6.93;;;25.20;76.80;;;23.19;100.00;100169.38;5073930;27;20562;-60
2021/06/12 11:24:59;;;;;;;7.32;6.63;;;24.60;83.00;;;22.84;100.00;100183.13;5083097;27;20644;-62
2021/06/12 11:28:18;;;;;;;7.65;7.03;;;24.10;90.20;;;22.76;100.00;100193.56;5071143;27;20329;-62
2021/06/12 11:31:56;;;;;;;6.93;6.43;;;23.70;92.30;;;22.18;100.00;100189.81;5079052;27;20228;-61
2021/06/12 11:35:14;;;;;;;7.40;6.70;;;23.40;94.90;;;21.84;100.00;100201.47;5000708;28;20785;-61
2021/06/12 11:38:28;;;;;;;7.53;6.93;;;23.10;99.90;;;21.55;100.00;100208.59;5054557;27;20463;-63
2021/06/12 11:41:42;;;;;;;9.25;8.27;;;22.80;99.90;;;21.06;100.00;100209.63;5072013;27;20573;-67
2021/06/12 11:44:55;;;;;;;9.25;8.10;;;22.40;99.90;;;21.03;100.00;100213.66;5047487;28;20228;-65
2021/06/12 11:48:08;;;;;;;8.73;8.02;;;21.80;99.90;;;21.15;100.00;100205.53;5074710;27;20470;-64
2021/06/12 11:51:31;;;;;;;8.70;8.00;;;21.40;99.90;;;21.04;100.00;100206.31;5071255;27;20544;-64
2021/06/12 11:54:43;;;;;;;8.85;8.05;;;21.20;99.90;;;21.02;100.00;100208.44;5066387;27;20800;-63
2021/06/12 11:58:07;;;;;;;9.27;8.45;;;21.10;99.90;;;21.17;100.00;100206.16;5065038;27;20224;-63
2021/06/12 12:01:20;;;;;;;8.75;8.05;;;20.90;99.90;;;21.11;100.00;100194.31;5080634;27;21037;-63
2021/06/12 12:04:42;;;;;;;9.75;8.85;;;20.80;99.90;;;21.41;100.00;100194.34;5082562;27;20203;-65
2021/06/12 12:07:56;;;;;;;9.05;8.25;;;20.70;99.90;;;21.52;100.00;100188.09;5075629;27;20548;-64
2021/06/12 12:11:09;;;;;;;8.93;8.10;;;20.80;99.90;;;21.82;100.00;100193.50;5074987;27;20621;-63
2021/06/12 12:14:25;;;;;;;8.63;7.93;;;21.00;99.90;;;22.15;100.00;100189.44;5076614;27;20871;-63
2021/06/12 12:17:48;;;;;;;8.73;8.02;;;21.20;99.90;;;22.76;100.00;100171.75;5080702;27;21176;-63
2021/06/12 12:21:03;;;;;;;8.77;7.88;;;21.50;99.90;;;22.74;100.00;100160.25;5062060;27;20247;-62
2021/06/12 12:24:21;;;;;;;8.50;6.95;;;21.90;99.90;;;23.21;100.00;100156.31;5074029;27;20232;-62
2021/06/12 12:27:33;;;;;;;8.02;6.72;;;22.30;99.90;;;23.23;100.00;100151.44;5076989;27;20682;-61
2021/06/12 12:30:53;;;;;;;6.72;6.15;;;22.60;99.90;;;23.25;100.00;100151.19;5074532;27;20204;-61
2021/06/12 12:34:12;;;;;;;6.75;6.00;;;22.90;99.90;;;23.66;100.00;100146.50;5072108;27;20829;-61
2021/06/12 12:37:26;;;;;;;6.75;5.63;;;23.10;99.90;;;23.80;100.00;100162.31;5076708;27;20735;-61
2021/06/12 12:40:43;;;;;;;4.55;4.10;;;23.40;99.90;;;23.73;100.00;100153.47;5083846;27;20472;-62
2021/06/12 12:43:54;;;;;;;4.78;3.67;;;23.60;99.90;;;23.79;100.00;100127.88;5074689;27;20355;-61
2021/06/12 12:47:06;;;;;;;3.17;2.85;;;23.80;99.90;;;23.45;100.00;100117.97;5082779;27;20251;-61
2021/06/12 12:50:20;;;;;;;4.22;3.13;;;23.90;96.40;;;23.64;100.00;100127.63;5063998;27;20868;-60
2021/06/12 12:53:54;;;;;;;2.80;2.60;;;24.00;94.30;;;23.62;100.00;100119.66;5067156;27;20861;-60
2021/06/12 12:57:13;;;;;;;4.50;2.88;;;24.00;93.10;;;23.43;100.00;100120.13;5065231;27;20558;-60
2021/06/12 13:00:36;;;;;;;3.85;3.20;;;23.90;91.40;;;23.38;100.00;100098.19;5074762;27;20300;-61
2021/06/12 13:04:14;;;;;;;3.72;3.05;;;23.90;92.80;;;23.11;100.00;100106.19;5071371;27;20606;-60
2021/06/12 13:07:33;;;;;;;4.47;3.00;;;23.70;91.80;;;22.97;100.00;100102.09;5081570;27;20638;-61
2021/06/12 13:10:51;;;;;;;3.53;2.90;;;23.50;94.20;;;22.79;100.00;100109.38;5072042;27;20251;-61
2021/06/12 13:14:07;;;;;;;5.85;3.20;;;23.30;94.20;;;22.79;100.00;100103.09;5071912;27;20220;-61
2021/06/12 13:17:40;;;;;;;3.22;2.92;;;23.10;94.50;;;22.71;100.00;100112.47;5080282;27;20348;-59
2021/06/12 13:20:52;;;;;;;4.00;3.17;;;22.90;94.50;;;22.67;100.00;100089.47;5072605;27;20474;-60
2021/06/12 13:24:17;;;;;;;3.65;3.03;;;22.90;95.10;;;23.57;100.00;100095.03;5079572;27;20318;-61
2021/06/12 13:27:34;;;;;;;3.65;3.35;;;23.00;95.40;;;23.53;100.00;100095.75;5076862;27;20498;-61
2021/06/12 13:31:03;;;;;;;3.47;3.17;;;23.40;94.70;;;23.97;100.00;100081.19;5061760;28;20220;-62
2021/06/12 13:34:14;;;;;;;3.15;2.92;;;23.70;92.70;;;24.05;100.00;100071.72;5072399;27;20473;-61
2021/06/12 13:37:35;;;;;;;3.78;3.03;;;24.00;91.10;;;24.35;100.00;100074.06;5078000;27;20668;-61
